sensor_id;sensor_type;location;lat;lon;timestamp;P1;durP1;ratioP1;P2;durP2;ratioP2
26536;SDS011;14204;51.262;5.488;2023-09-07T00:01:49;10.88;;;7.25;;
26536;SDS011;14204;51.262;5.488;2023-09-07T00:04:17;10.52;;;8.38;;
26536;SDS011;14204;51.262;5.488;2023-09-07T00:06:48;13.73;;;9.02;;
26536;SDS011;14204;51.262;5.488;2023-09-07T00:09:15;10.93;;;8.13;;
26536;SDS011;14204;51.262;5.488;2023-09-07T00:11:43;11.32;;;8.98;;
26536;SDS011;14204;51.262;5.488;2023-09-07T00:14:11;9.65;;;8.65;;
26536;SDS011;14204;51.262;5.488;2023-09-07T00:16:37;9.35;;;8.48;;
26536;SDS011;14204;51.262;5.488;2023-09-07T00:19:06;11.98;;;8.90;;
26536;SDS011;14204;51.262;5.488;2023-09-07T00:21:32;10.80;;;8.82;;
26536;SDS011;14204;51.262;5.488;2023-09-07T00:23:57;12.45;;;9.00;;
26536;SDS011;14204;51.262;5.488;2023-09-07T00:26:23;11.80;;;8.93;;
26536;SDS011;14204;51.262;5.488;2023-09-07T00:28:48;12.98;;;8.95;;
26536;SDS011;14204;51.262;5.488;2023-09-07T00:31:14;11.38;;;9.02;;
26536;SDS011;14204;51.262;5.488;2023-09-07T00:33:40;12.38;;;9.38;;
26536;SDS011;14204;51.262;5.488;2023-09-07T00:36:06;11.75;;;9.07;;
26536;SDS011;14204;51.262;5.488;2023-09-07T00:38:32;11.52;;;9.93;;
26536;SDS011;14204;51.262;5.488;2023-09-07T00:40:58;13.00;;;8.55;;
26536;SDS011;14204;51.262;5.488;2023-09-07T00:43:23;10.80;;;9.70;;
26536;SDS011;14204;51.262;5.488;2023-09-07T00:45:49;10.45;;;9.30;;
26536;SDS011;14204;51.262;5.488;2023-09-07T00:48:15;10.35;;;9.15;;
26536;SDS011;14204;51.262;5.488;2023-09-07T00:50:41;11.05;;;9.60;;
26536;SDS011;14204;51.262;5.488;2023-09-07T00:53:08;11.50;;;9.50;;
26536;SDS011;14204;51.262;5.488;2023-09-07T00:55:35;13.02;;;10.35;;
26536;SDS011;14204;51.262;5.488;2023-09-07T00:58:03;14.60;;;9.27;;
26536;SDS011;14204;51.262;5.488;2023-09-07T01:00:32;11.27;;;9.77;;
26536;SDS011;14204;51.262;5.488;2023-09-07T01:02:59;12.68;;;9.20;;
26536;SDS011;14204;51.262;5.488;2023-09-07T01:05:39;12.93;;;9.00;;
26536;SDS011;14204;51.262;5.488;2023-09-07T01:08:14;11.82;;;10.57;;
26536;SDS011;14204;51.262;5.488;2023-09-07T01:10:48;11.65;;;9.90;;
26536;SDS011;14204;51.262;5.488;2023-09-07T01:13:14;12.25;;;8.43;;
26536;SDS011;14204;51.262;5.488;2023-09-07T01:15:40;11.82;;;9.73;;
26536;SDS011;14204;51.262;5.488;2023-09-07T01:18:05;12.05;;;8.50;;
26536;SDS011;14204;51.262;5.488;2023-09-07T01:20:33;11.45;;;8.95;;
26536;SDS011;14204;51.262;5.488;2023-09-07T01:23:01;9.88;;;8.88;;
26536;SDS011;14204;51.262;5.488;2023-09-07T01:25:28;11.90;;;9.25;;
26536;SDS011;14204;51.262;5.488;2023-09-07T01:27:54;9.30;;;8.48;;
26536;SDS011;14204;51.262;5.488;2023-09-07T01:30:19;12.10;;;8.75;;
26536;SDS011;14204;51.262;5.488;2023-09-07T01:32:45;9.70;;;8.80;;
26536;SDS011;14204;51.262;5.488;2023-09-07T01:35:11;11.05;;;9.73;;
26536;SDS011;14204;51.262;5.488;2023-09-07T01:37:39;13.15;;;10.25;;
26536;SDS011;14204;51.262;5.488;2023-09-07T01:40:05;11.00;;;9.25;;
26536;SDS011;14204;51.262;5.488;2023-09-07T01:42:33;12.73;;;10.18;;
26536;SDS011;14204;51.262;5.488;2023-09-07T01:44:59;14.48;;;10.63;;
26536;SDS011;14204;51.262;5.488;2023-09-07T01:47:24;12.88;;;10.20;;
26536;SDS011;14204;51.262;5.488;2023-09-07T01:49:50;11.18;;;9.90;;
26536;SDS011;14204;51.262;5.488;2023-09-07T01:52:16;11.88;;;9.52;;
26536;SDS011;14204;51.262;5.488;2023-09-07T01:54:41;13.38;;;9.30;;
26536;SDS011;14204;51.262;5.488;2023-09-07T01:57:07;11.52;;;9.05;;
26536;SDS011;14204;51.262;5.488;2023-09-07T01:59:33;12.07;;;8.60;;
26536;SDS011;14204;51.262;5.488;2023-09-07T02:01:58;10.50;;;8.05;;
26536;SDS011;14204;51.262;5.488;2023-09-07T02:04:24;10.02;;;8.93;;
26536;SDS011;14204;51.262;5.488;2023-09-07T02:06:50;10.10;;;8.23;;
26536;SDS011;14204;51.262;5.488;2023-09-07T02:09:15;10.05;;;8.80;;
26536;SDS011;14204;51.262;5.488;2023-09-07T02:11:41;12.10;;;9.00;;
26536;SDS011;14204;51.262;5.488;2023-09-07T02:14:06;11.88;;;10.02;;
26536;SDS011;14204;51.262;5.488;2023-09-07T02:16:34;12.48;;;9.27;;
26536;SDS011;14204;51.262;5.488;2023-09-07T02:19:03;9.43;;;8.50;;
26536;SDS011;14204;51.262;5.488;2023-09-07T02:21:30;9.55;;;7.88;;
26536;SDS011;14204;51.262;5.488;2023-09-07T02:23:56;11.70;;;8.48;;
26536;SDS011;14204;51.262;5.488;2023-09-07T02:26:21;8.77;;;7.90;;
26536;SDS011;14204;51.262;5.488;2023-09-07T02:28:47;11.90;;;8.10;;
26536;SDS011;14204;51.262;5.488;2023-09-07T02:31:13;15.55;;;10.68;;
26536;SDS011;14204;51.262;5.488;2023-09-07T02:33:38;17.30;;;10.77;;
26536;SDS011;14204;51.262;5.488;2023-09-07T02:36:04;13.05;;;10.05;;
26536;SDS011;14204;51.262;5.488;2023-09-07T02:38:30;12.40;;;10.45;;
26536;SDS011;14204;51.262;5.488;2023-09-07T02:40:55;12.98;;;10.55;;
26536;SDS011;14204;51.262;5.488;2023-09-07T02:43:22;16.13;;;12.07;;
26536;SDS011;14204;51.262;5.488;2023-09-07T02:45:48;18.33;;;11.10;;
26536;SDS011;14204;51.262;5.488;2023-09-07T02:48:14;15.82;;;12.77;;
26536;SDS011;14204;51.262;5.488;2023-09-07T02:50:40;17.15;;;12.85;;
26536;SDS011;14204;51.262;5.488;2023-09-07T02:53:07;16.33;;;12.13;;
26536;SDS011;14204;51.262;5.488;2023-09-07T02:55:33;14.80;;;13.13;;
26536;SDS011;14204;51.262;5.488;2023-09-07T02:58:02;16.27;;;13.48;;
26536;SDS011;14204;51.262;5.488;2023-09-07T03:00:28;20.48;;;13.60;;
26536;SDS011;14204;51.262;5.488;2023-09-07T03:02:54;16.27;;;11.20;;
26536;SDS011;14204;51.262;5.488;2023-09-07T03:05:19;13.88;;;10.10;;
26536;SDS011;14204;51.262;5.488;2023-09-07T03:07:46;11.18;;;9.50;;
26536;SDS011;14204;51.262;5.488;2023-09-07T03:10:12;11.40;;;9.93;;
26536;SDS011;14204;51.262;5.488;2023-09-07T03:12:38;12.45;;;10.13;;
26536;SDS011;14204;51.262;5.488;2023-09-07T03:15:04;10.88;;;9.70;;
26536;SDS011;14204;51.262;5.488;2023-09-07T03:17:31;11.55;;;9.30;;
26536;SDS011;14204;51.262;5.488;2023-09-07T03:19:57;16.67;;;10.07;;
26536;SDS011;14204;51.262;5.488;2023-09-07T03:22:23;10.93;;;9.80;;
26536;SDS011;14204;51.262;5.488;2023-09-07T03:24:51;16.85;;;10.43;;
26536;SDS011;14204;51.262;5.488;2023-09-07T03:27:17;13.25;;;10.82;;
26536;SDS011;14204;51.262;5.488;2023-09-07T03:29:46;14.10;;;10.65;;
26536;SDS011;14204;51.262;5.488;2023-09-07T03:32:16;14.90;;;11.13;;
26536;SDS011;14204;51.262;5.488;2023-09-07T03:34:42;12.48;;;10.70;;
26536;SDS011;14204;51.262;5.488;2023-09-07T03:37:08;13.55;;;11.20;;
26536;SDS011;14204;51.262;5.488;2023-09-07T03:39:36;14.63;;;12.18;;
26536;SDS011;14204;51.262;5.488;2023-09-07T03:42:02;15.27;;;11.23;;
26536;SDS011;14204;51.262;5.488;2023-09-07T03:44:28;15.55;;;11.45;;
26536;SDS011;14204;51.262;5.488;2023-09-07T03:46:53;16.13;;;11.48;;
26536;SDS011;14204;51.262;5.488;2023-09-07T03:49:19;13.90;;;11.75;;
26536;SDS011;14204;51.262;5.488;2023-09-07T03:51:45;14.07;;;11.85;;
26536;SDS011;14204;51.262;5.488;2023-09-07T03:54:10;11.63;;;10.32;;
26536;SDS011;14204;51.262;5.488;2023-09-07T03:56:36;13.93;;;11.55;;
26536;SDS011;14204;51.262;5.488;2023-09-07T03:59:04;11.38;;;9.75;;
26536;SDS011;14204;51.262;5.488;2023-09-07T04:01:30;11.65;;;9.82;;
26536;SDS011;14204;51.262;5.488;2023-09-07T04:03:55;10.63;;;9.18;;
26536;SDS011;14204;51.262;5.488;2023-09-07T04:06:21;9.95;;;8.95;;
26536;SDS011;14204;51.262;5.488;2023-09-07T04:08:48;9.90;;;8.93;;
26536;SDS011;14204;51.262;5.488;2023-09-07T04:11:14;10.32;;;8.45;;
26536;SDS011;14204;51.262;5.488;2023-09-07T04:13:40;9.30;;;8.10;;
26536;SDS011;14204;51.262;5.488;2023-09-07T04:16:05;10.90;;;7.80;;
26536;SDS011;14204;51.262;5.488;2023-09-07T04:18:34;11.45;;;9.75;;
26536;SDS011;14204;51.262;5.488;2023-09-07T04:21:06;17.08;;;10.45;;
26536;SDS011;14204;51.262;5.488;2023-09-07T04:23:34;14.25;;;10.82;;
26536;SDS011;14204;51.262;5.488;2023-09-07T04:26:03;11.20;;;10.10;;
26536;SDS011;14204;51.262;5.488;2023-09-07T04:28:33;13.10;;;10.65;;
26536;SDS011;14204;51.262;5.488;2023-09-07T04:30:59;12.45;;;10.70;;
26536;SDS011;14204;51.262;5.488;2023-09-07T04:33:24;13.27;;;10.05;;
26536;SDS011;14204;51.262;5.488;2023-09-07T04:35:50;13.80;;;11.32;;
26536;SDS011;14204;51.262;5.488;2023-09-07T04:38:16;13.43;;;11.38;;
26536;SDS011;14204;51.262;5.488;2023-09-07T04:40:41;15.45;;;12.10;;
26536;SDS011;14204;51.262;5.488;2023-09-07T04:43:07;12.95;;;11.55;;
26536;SDS011;14204;51.262;5.488;2023-09-07T04:45:33;15.15;;;12.13;;
26536;SDS011;14204;51.262;5.488;2023-09-07T04:47:58;12.45;;;10.48;;
26536;SDS011;14204;51.262;5.488;2023-09-07T04:50:24;18.38;;;10.77;;
26536;SDS011;14204;51.262;5.488;2023-09-07T04:52:50;14.05;;;10.27;;
26536;SDS011;14204;51.262;5.488;2023-09-07T04:55:16;13.48;;;11.07;;
26536;SDS011;14204;51.262;5.488;2023-09-07T04:57:42;11.60;;;9.65;;
26536;SDS011;14204;51.262;5.488;2023-09-07T05:00:07;15.73;;;10.68;;
26536;SDS011;14204;51.262;5.488;2023-09-07T05:02:36;12.63;;;10.05;;
26536;SDS011;14204;51.262;5.488;2023-09-07T05:05:07;13.10;;;10.48;;
26536;SDS011;14204;51.262;5.488;2023-09-07T05:07:33;14.57;;;11.65;;
26536;SDS011;14204;51.262;5.488;2023-09-07T05:09:59;15.75;;;12.32;;
26536;SDS011;14204;51.262;5.488;2023-09-07T05:12:24;14.13;;;12.57;;
26536;SDS011;14204;51.262;5.488;2023-09-07T05:14:50;14.30;;;11.43;;
26536;SDS011;14204;51.262;5.488;2023-09-07T05:17:16;13.60;;;11.27;;
26536;SDS011;14204;51.262;5.488;2023-09-07T05:19:41;16.52;;;11.65;;
26536;SDS011;14204;51.262;5.488;2023-09-07T05:22:07;15.05;;;12.18;;
26536;SDS011;14204;51.262;5.488;2023-09-07T05:24:33;14.88;;;12.05;;
26536;SDS011;14204;51.262;5.488;2023-09-07T05:26:59;15.60;;;11.45;;
26536;SDS011;14204;51.262;5.488;2023-09-07T05:29:24;12.38;;;10.82;;
26536;SDS011;14204;51.262;5.488;2023-09-07T05:31:50;12.80;;;10.52;;
26536;SDS011;14204;51.262;5.488;2023-09-07T05:34:16;12.40;;;11.15;;
26536;SDS011;14204;51.262;5.488;2023-09-07T05:36:41;17.42;;;11.07;;
26536;SDS011;14204;51.262;5.488;2023-09-07T05:39:07;13.25;;;10.93;;
26536;SDS011;14204;51.262;5.488;2023-09-07T05:41:32;14.85;;;11.30;;
26536;SDS011;14204;51.262;5.488;2023-09-07T05:43:58;13.35;;;11.93;;
26536;SDS011;14204;51.262;5.488;2023-09-07T05:46:24;16.65;;;12.13;;
26536;SDS011;14204;51.262;5.488;2023-09-07T05:48:50;11.63;;;10.50;;
26536;SDS011;14204;51.262;5.488;2023-09-07T05:51:16;11.70;;;10.48;;
26536;SDS011;14204;51.262;5.488;2023-09-07T05:53:42;14.07;;;11.85;;
26536;SDS011;14204;51.262;5.488;2023-09-07T05:56:07;17.08;;;13.15;;
26536;SDS011;14204;51.262;5.488;2023-09-07T05:58:33;17.83;;;13.80;;
26536;SDS011;14204;51.262;5.488;2023-09-07T06:00:59;15.10;;;11.45;;
26536;SDS011;14204;51.262;5.488;2023-09-07T06:03:25;14.93;;;11.45;;
26536;SDS011;14204;51.262;5.488;2023-09-07T06:05:50;15.75;;;11.95;;
26536;SDS011;14204;51.262;5.488;2023-09-07T06:08:16;13.13;;;11.48;;
26536;SDS011;14204;51.262;5.488;2023-09-07T06:10:42;17.55;;;13.38;;
26536;SDS011;14204;51.262;5.488;2023-09-07T06:13:07;17.25;;;12.93;;
26536;SDS011;14204;51.262;5.488;2023-09-07T06:15:34;14.13;;;12.48;;
26536;SDS011;14204;51.262;5.488;2023-09-07T06:17:59;14.90;;;12.60;;
26536;SDS011;14204;51.262;5.488;2023-09-07T06:20:25;18.00;;;10.52;;
26536;SDS011;14204;51.262;5.488;2023-09-07T06:22:51;15.48;;;11.77;;
26536;SDS011;14204;51.262;5.488;2023-09-07T06:25:16;16.27;;;12.77;;
26536;SDS011;14204;51.262;5.488;2023-09-07T06:27:42;16.02;;;12.40;;
26536;SDS011;14204;51.262;5.488;2023-09-07T06:30:08;14.45;;;12.27;;
26536;SDS011;14204;51.262;5.488;2023-09-07T06:32:34;14.63;;;12.35;;
26536;SDS011;14204;51.262;5.488;2023-09-07T06:35:00;18.25;;;13.30;;
26536;SDS011;14204;51.262;5.488;2023-09-07T06:37:26;19.58;;;13.85;;
26536;SDS011;14204;51.262;5.488;2023-09-07T06:39:51;14.25;;;11.75;;
26536;SDS011;14204;51.262;5.488;2023-09-07T06:42:17;14.02;;;11.32;;
26536;SDS011;14204;51.262;5.488;2023-09-07T06:44:43;14.27;;;11.15;;
26536;SDS011;14204;51.262;5.488;2023-09-07T06:47:10;17.83;;;12.80;;
26536;SDS011;14204;51.262;5.488;2023-09-07T06:49:37;22.80;;;11.93;;
26536;SDS011;14204;51.262;5.488;2023-09-07T06:52:03;19.02;;;12.80;;
26536;SDS011;14204;51.262;5.488;2023-09-07T06:54:29;16.30;;;11.50;;
26536;SDS011;14204;51.262;5.488;2023-09-07T06:56:55;16.60;;;12.00;;
26536;SDS011;14204;51.262;5.488;2023-09-07T06:59:21;12.75;;;11.43;;
26536;SDS011;14204;51.262;5.488;2023-09-07T07:01:47;15.05;;;11.77;;
26536;SDS011;14204;51.262;5.488;2023-09-07T07:04:12;12.57;;;11.10;;
26536;SDS011;14204;51.262;5.488;2023-09-07T07:06:38;16.55;;;13.18;;
26536;SDS011;14204;51.262;5.488;2023-09-07T07:09:04;17.60;;;15.38;;
26536;SDS011;14204;51.262;5.488;2023-09-07T07:11:30;18.65;;;13.45;;
26536;SDS011;14204;51.262;5.488;2023-09-07T07:13:56;16.52;;;11.90;;
26536;SDS011;14204;51.262;5.488;2023-09-07T07:16:22;21.35;;;13.77;;
26536;SDS011;14204;51.262;5.488;2023-09-07T07:18:47;17.35;;;12.45;;
26536;SDS011;14204;51.262;5.488;2023-09-07T07:21:13;17.88;;;13.13;;
26536;SDS011;14204;51.262;5.488;2023-09-07T07:23:39;18.00;;;13.65;;
26536;SDS011;14204;51.262;5.488;2023-09-07T07:26:04;17.85;;;13.10;;
26536;SDS011;14204;51.262;5.488;2023-09-07T07:28:30;16.67;;;13.60;;
26536;SDS011;14204;51.262;5.488;2023-09-07T07:30:56;23.65;;;16.23;;
26536;SDS011;14204;51.262;5.488;2023-09-07T07:33:22;15.20;;;12.63;;
26536;SDS011;14204;51.262;5.488;2023-09-07T07:35:48;17.73;;;12.75;;
26536;SDS011;14204;51.262;5.488;2023-09-07T07:38:13;22.10;;;12.48;;
26536;SDS011;14204;51.262;5.488;2023-09-07T07:40:40;19.92;;;11.60;;
26536;SDS011;14204;51.262;5.488;2023-09-07T07:43:06;17.13;;;11.20;;
26536;SDS011;14204;51.262;5.488;2023-09-07T07:45:32;17.75;;;11.38;;
26536;SDS011;14204;51.262;5.488;2023-09-07T07:48:01;15.20;;;10.98;;
26536;SDS011;14204;51.262;5.488;2023-09-07T07:50:30;18.25;;;11.52;;
26536;SDS011;14204;51.262;5.488;2023-09-07T07:52:56;21.83;;;11.50;;
26536;SDS011;14204;51.262;5.488;2023-09-07T07:55:22;13.82;;;10.77;;
26536;SDS011;14204;51.262;5.488;2023-09-07T07:57:48;17.05;;;9.15;;
26536;SDS011;14204;51.262;5.488;2023-09-07T08:00:13;15.80;;;8.88;;
26536;SDS011;14204;51.262;5.488;2023-09-07T08:02:39;13.90;;;8.93;;
26536;SDS011;14204;51.262;5.488;2023-09-07T08:05:05;11.30;;;7.55;;
26536;SDS011;14204;51.262;5.488;2023-09-07T08:07:31;13.02;;;9.55;;
26536;SDS011;14204;51.262;5.488;2023-09-07T08:09:56;14.40;;;9.80;;
26536;SDS011;14204;51.262;5.488;2023-09-07T08:12:22;12.60;;;8.45;;
26536;SDS011;14204;51.262;5.488;2023-09-07T08:14:48;12.77;;;8.57;;
26536;SDS011;14204;51.262;5.488;2023-09-07T08:17:13;12.40;;;8.07;;
26536;SDS011;14204;51.262;5.488;2023-09-07T08:19:39;11.73;;;8.85;;
26536;SDS011;14204;51.262;5.488;2023-09-07T08:22:05;11.82;;;8.23;;
26536;SDS011;14204;51.262;5.488;2023-09-07T08:24:31;14.02;;;7.78;;
26536;SDS011;14204;51.262;5.488;2023-09-07T08:26:57;14.88;;;8.63;;
26536;SDS011;14204;51.262;5.488;2023-09-07T08:29:25;13.23;;;7.90;;
26536;SDS011;14204;51.262;5.488;2023-09-07T08:31:52;10.07;;;7.78;;
26536;SDS011;14204;51.262;5.488;2023-09-07T08:34:20;10.13;;;7.38;;
26536;SDS011;14204;51.262;5.488;2023-09-07T08:36:47;11.80;;;7.85;;
26536;SDS011;14204;51.262;5.488;2023-09-07T08:39:15;10.73;;;7.47;;
26536;SDS011;14204;51.262;5.488;2023-09-07T08:41:41;11.23;;;7.45;;
26536;SDS011;14204;51.262;5.488;2023-09-07T08:44:21;10.43;;;6.57;;
26536;SDS011;14204;51.262;5.488;2023-09-07T08:46:49;9.27;;;6.93;;
26536;SDS011;14204;51.262;5.488;2023-09-07T08:49:17;13.68;;;6.50;;
26536;SDS011;14204;51.262;5.488;2023-09-07T08:51:46;8.32;;;6.80;;
26536;SDS011;14204;51.262;5.488;2023-09-07T08:54:13;10.10;;;7.13;;
26536;SDS011;14204;51.262;5.488;2023-09-07T08:56:39;7.88;;;6.20;;
26536;SDS011;14204;51.262;5.488;2023-09-07T08:59:04;12.35;;;7.10;;
26536;SDS011;14204;51.262;5.488;2023-09-07T09:01:30;9.90;;;6.47;;
26536;SDS011;14204;51.262;5.488;2023-09-07T09:03:59;9.25;;;6.35;;
26536;SDS011;14204;51.262;5.488;2023-09-07T09:06:25;8.60;;;6.32;;
26536;SDS011;14204;51.262;5.488;2023-09-07T09:08:54;7.45;;;6.43;;
26536;SDS011;14204;51.262;5.488;2023-09-07T09:11:22;10.10;;;6.57;;
26536;SDS011;14204;51.262;5.488;2023-09-07T09:13:51;9.20;;;6.25;;
26536;SDS011;14204;51.262;5.488;2023-09-07T09:16:18;11.32;;;6.13;;
26536;SDS011;14204;51.262;5.488;2023-09-07T09:18:51;7.07;;;5.78;;
26536;SDS011;14204;51.262;5.488;2023-09-07T09:21:26;7.10;;;6.40;;
26536;SDS011;14204;51.262;5.488;2023-09-07T09:23:53;7.87;;;6.13;;
26536;SDS011;14204;51.262;5.488;2023-09-07T09:26:23;9.27;;;6.30;;
26536;SDS011;14204;51.262;5.488;2023-09-07T09:28:48;9.80;;;5.38;;
26536;SDS011;14204;51.262;5.488;2023-09-07T09:31:17;7.65;;;5.78;;
26536;SDS011;14204;51.262;5.488;2023-09-07T09:33:44;9.88;;;5.95;;
26536;SDS011;14204;51.262;5.488;2023-09-07T09:36:13;10.93;;;5.55;;
26536;SDS011;14204;51.262;5.488;2023-09-07T09:38:39;6.85;;;6.15;;
26536;SDS011;14204;51.262;5.488;2023-09-07T09:41:05;8.88;;;5.80;;
26536;SDS011;14204;51.262;5.488;2023-09-07T09:43:32;9.43;;;5.50;;
26536;SDS011;14204;51.262;5.488;2023-09-07T09:45:59;7.65;;;5.75;;
26536;SDS011;14204;51.262;5.488;2023-09-07T09:48:25;5.70;;;5.20;;
26536;SDS011;14204;51.262;5.488;2023-09-07T09:50:53;8.18;;;5.88;;
26536;SDS011;14204;51.262;5.488;2023-09-07T09:53:19;6.40;;;4.90;;
26536;SDS011;14204;51.262;5.488;2023-09-07T09:55:49;8.48;;;5.70;;
26536;SDS011;14204;51.262;5.488;2023-09-07T09:58:17;6.82;;;5.53;;
26536;SDS011;14204;51.262;5.488;2023-09-07T10:00:43;8.10;;;5.30;;
26536;SDS011;14204;51.262;5.488;2023-09-07T10:03:18;6.20;;;5.60;;
26536;SDS011;14204;51.262;5.488;2023-09-07T10:05:49;5.88;;;5.18;;
26536;SDS011;14204;51.262;5.488;2023-09-07T10:08:16;6.07;;;5.47;;
26536;SDS011;14204;51.262;5.488;2023-09-07T10:10:43;10.32;;;5.95;;
26536;SDS011;14204;51.262;5.488;2023-09-07T10:13:15;6.82;;;5.75;;
26536;SDS011;14204;51.262;5.488;2023-09-07T10:15:42;7.60;;;5.20;;
26536;SDS011;14204;51.262;5.488;2023-09-07T10:18:11;4.80;;;4.40;;
26536;SDS011;14204;51.262;5.488;2023-09-07T10:20:54;5.85;;;4.93;;
26536;SDS011;14204;51.262;5.488;2023-09-07T10:23:23;5.05;;;4.55;;
26536;SDS011;14204;51.262;5.488;2023-09-07T10:26:10;8.25;;;5.03;;
26536;SDS011;14204;51.262;5.488;2023-09-07T10:28:37;8.68;;;4.70;;
26536;SDS011;14204;51.262;5.488;2023-09-07T10:31:04;11.20;;;4.88;;
26536;SDS011;14204;51.262;5.488;2023-09-07T10:33:32;5.75;;;4.45;;
26536;SDS011;14204;51.262;5.488;2023-09-07T10:35:59;5.32;;;4.82;;
26536;SDS011;14204;51.262;5.488;2023-09-07T10:38:25;8.43;;;4.90;;
26536;SDS011;14204;51.262;5.488;2023-09-07T10:40:54;5.47;;;4.40;;
26536;SDS011;14204;51.262;5.488;2023-09-07T10:43:23;5.40;;;4.90;;
26536;SDS011;14204;51.262;5.488;2023-09-07T10:45:50;7.75;;;4.95;;
26536;SDS011;14204;51.262;5.488;2023-09-07T10:48:16;5.32;;;4.38;;
26536;SDS011;14204;51.262;5.488;2023-09-07T10:50:45;6.93;;;4.22;;
26536;SDS011;14204;51.262;5.488;2023-09-07T10:53:12;7.07;;;4.75;;
26536;SDS011;14204;51.262;5.488;2023-09-07T10:55:39;5.00;;;4.15;;
26536;SDS011;14204;51.262;5.488;2023-09-07T10:58:06;6.70;;;4.15;;
26536;SDS011;14204;51.262;5.488;2023-09-07T11:00:34;4.57;;;4.03;;
26536;SDS011;14204;51.262;5.488;2023-09-07T11:03:06;6.10;;;4.80;;
26536;SDS011;14204;51.262;5.488;2023-09-07T11:05:36;8.35;;;4.50;;
26536;SDS011;14204;51.262;5.488;2023-09-07T11:08:06;6.35;;;4.63;;
26536;SDS011;14204;51.262;5.488;2023-09-07T11:10:33;6.70;;;4.50;;
26536;SDS011;14204;51.262;5.488;2023-09-07T11:13:06;4.93;;;3.38;;
26536;SDS011;14204;51.262;5.488;2023-09-07T11:15:32;7.47;;;3.75;;
26536;SDS011;14204;51.262;5.488;2023-09-07T11:18:04;6.25;;;4.00;;
26536;SDS011;14204;51.262;5.488;2023-09-07T11:20:37;4.72;;;4.32;;
26536;SDS011;14204;51.262;5.488;2023-09-07T11:23:05;5.72;;;4.15;;
26536;SDS011;14204;51.262;5.488;2023-09-07T11:25:37;7.25;;;3.90;;
26536;SDS011;14204;51.262;5.488;2023-09-07T11:28:08;4.82;;;3.97;;
26536;SDS011;14204;51.262;5.488;2023-09-07T11:30:35;5.07;;;3.70;;
26536;SDS011;14204;51.262;5.488;2023-09-07T11:33:04;5.82;;;3.53;;
26536;SDS011;14204;51.262;5.488;2023-09-07T11:35:31;4.68;;;3.80;;
26536;SDS011;14204;51.262;5.488;2023-09-07T11:38:02;4.82;;;3.95;;
26536;SDS011;14204;51.262;5.488;2023-09-07T11:40:30;4.00;;;3.70;;
26536;SDS011;14204;51.262;5.488;2023-09-07T11:42:56;6.15;;;3.55;;
26536;SDS011;14204;51.262;5.488;2023-09-07T11:45:22;4.93;;;4.05;;
26536;SDS011;14204;51.262;5.488;2023-09-07T11:47:48;5.03;;;4.30;;
26536;SDS011;14204;51.262;5.488;2023-09-07T11:50:16;4.43;;;4.03;;
26536;SDS011;14204;51.262;5.488;2023-09-07T11:52:42;5.65;;;3.92;;
26536;SDS011;14204;51.262;5.488;2023-09-07T11:55:09;4.25;;;3.47;;
26536;SDS011;14204;51.262;5.488;2023-09-07T11:57:36;4.55;;;3.53;;
26536;SDS011;14204;51.262;5.488;2023-09-07T12:00:02;6.40;;;3.90;;
26536;SDS011;14204;51.262;5.488;2023-09-07T12:02:30;4.10;;;3.65;;
26536;SDS011;14204;51.262;5.488;2023-09-07T12:04:56;7.75;;;4.07;;
26536;SDS011;14204;51.262;5.488;2023-09-07T12:07:21;5.10;;;3.92;;
26536;SDS011;14204;51.262;5.488;2023-09-07T12:09:47;7.05;;;4.53;;
26536;SDS011;14204;51.262;5.488;2023-09-07T12:12:13;5.38;;;4.10;;
26536;SDS011;14204;51.262;5.488;2023-09-07T12:14:39;5.50;;;4.25;;
26536;SDS011;14204;51.262;5.488;2023-09-07T12:17:05;6.40;;;4.78;;
26536;SDS011;14204;51.262;5.488;2023-09-07T12:19:31;5.63;;;4.10;;
26536;SDS011;14204;51.262;5.488;2023-09-07T12:21:56;4.68;;;4.18;;
26536;SDS011;14204;51.262;5.488;2023-09-07T12:24:22;4.30;;;3.85;;
26536;SDS011;14204;51.262;5.488;2023-09-07T12:26:48;5.25;;;4.47;;
26536;SDS011;14204;51.262;5.488;2023-09-07T12:29:13;7.25;;;4.45;;
26536;SDS011;14204;51.262;5.488;2023-09-07T12:31:39;6.38;;;4.35;;
26536;SDS011;14204;51.262;5.488;2023-09-07T12:34:05;5.45;;;4.45;;
26536;SDS011;14204;51.262;5.488;2023-09-07T12:36:30;7.47;;;4.57;;
26536;SDS011;14204;51.262;5.488;2023-09-07T12:38:56;5.50;;;4.75;;
26536;SDS011;14204;51.262;5.488;2023-09-07T12:41:27;5.78;;;4.07;;
26536;SDS011;14204;51.262;5.488;2023-09-07T12:43:54;5.40;;;4.45;;
26536;SDS011;14204;51.262;5.488;2023-09-07T12:46:19;6.25;;;4.65;;
26536;SDS011;14204;51.262;5.488;2023-09-07T12:48:45;5.03;;;4.43;;
26536;SDS011;14204;51.262;5.488;2023-09-07T12:51:11;7.22;;;4.30;;
26536;SDS011;14204;51.262;5.488;2023-09-07T12:53:36;4.60;;;4.00;;
26536;SDS011;14204;51.262;5.488;2023-09-07T12:56:02;6.63;;;4.97;;
26536;SDS011;14204;51.262;5.488;2023-09-07T12:58:28;6.03;;;4.32;;
26536;SDS011;14204;51.262;5.488;2023-09-07T13:00:54;4.88;;;4.43;;
26536;SDS011;14204;51.262;5.488;2023-09-07T13:03:20;4.28;;;3.92;;
26536;SDS011;14204;51.262;5.488;2023-09-07T13:05:45;7.82;;;4.55;;
26536;SDS011;14204;51.262;5.488;2023-09-07T13:08:11;4.47;;;4.07;;
26536;SDS011;14204;51.262;5.488;2023-09-07T13:10:37;4.53;;;4.13;;
26536;SDS011;14204;51.262;5.488;2023-09-07T13:13:03;5.32;;;4.03;;
26536;SDS011;14204;51.262;5.488;2023-09-07T13:15:29;6.60;;;4.43;;
26536;SDS011;14204;51.262;5.488;2023-09-07T13:17:55;4.75;;;4.40;;
26536;SDS011;14204;51.262;5.488;2023-09-07T13:20:21;8.98;;;4.30;;
26536;SDS011;14204;51.262;5.488;2023-09-07T13:22:47;4.20;;;3.85;;
26536;SDS011;14204;51.262;5.488;2023-09-07T13:25:12;10.00;;;4.75;;
26536;SDS011;14204;51.262;5.488;2023-09-07T13:27:38;5.43;;;4.20;;
26536;SDS011;14204;51.262;5.488;2023-09-07T13:30:05;5.40;;;4.70;;
26536;SDS011;14204;51.262;5.488;2023-09-07T13:32:33;4.53;;;3.97;;
26536;SDS011;14204;51.262;5.488;2023-09-07T13:34:59;8.32;;;4.18;;
26536;SDS011;14204;51.262;5.488;2023-09-07T13:37:25;5.35;;;4.32;;
26536;SDS011;14204;51.262;5.488;2023-09-07T13:39:51;5.93;;;4.50;;
26536;SDS011;14204;51.262;5.488;2023-09-07T13:42:17;11.35;;;4.88;;
26536;SDS011;14204;51.262;5.488;2023-09-07T13:44:43;4.78;;;4.43;;
26536;SDS011;14204;51.262;5.488;2023-09-07T13:47:10;7.65;;;4.15;;
26536;SDS011;14204;51.262;5.488;2023-09-07T13:49:36;5.50;;;4.38;;
26536;SDS011;14204;51.262;5.488;2023-09-07T13:52:02;4.65;;;4.30;;
26536;SDS011;14204;51.262;5.488;2023-09-07T13:54:28;5.05;;;4.65;;
26536;SDS011;14204;51.262;5.488;2023-09-07T13:56:54;5.70;;;4.45;;
26536;SDS011;14204;51.262;5.488;2023-09-07T13:59:20;6.10;;;4.18;;
26536;SDS011;14204;51.262;5.488;2023-09-07T14:01:45;4.75;;;4.43;;
26536;SDS011;14204;51.262;5.488;2023-09-07T14:04:11;4.80;;;4.40;;
26536;SDS011;14204;51.262;5.488;2023-09-07T14:06:37;6.88;;;4.70;;
26536;SDS011;14204;51.262;5.488;2023-09-07T14:09:02;4.72;;;4.32;;
26536;SDS011;14204;51.262;5.488;2023-09-07T14:11:28;5.07;;;4.57;;
26536;SDS011;14204;51.262;5.488;2023-09-07T14:13:54;6.60;;;4.45;;
26536;SDS011;14204;51.262;5.488;2023-09-07T14:16:20;7.32;;;4.68;;
26536;SDS011;14204;51.262;5.488;2023-09-07T14:18:46;5.10;;;4.30;;
26536;SDS011;14204;51.262;5.488;2023-09-07T14:21:16;6.60;;;4.97;;
26536;SDS011;14204;51.262;5.488;2023-09-07T14:23:42;6.53;;;4.28;;
26536;SDS011;14204;51.262;5.488;2023-09-07T14:26:09;4.93;;;4.53;;
26536;SDS011;14204;51.262;5.488;2023-09-07T14:28:35;5.03;;;4.53;;
26536;SDS011;14204;51.262;5.488;2023-09-07T14:31:03;4.95;;;4.10;;
26536;SDS011;14204;51.262;5.488;2023-09-07T14:33:31;7.00;;;4.32;;